Time;durP1;ratioP1;P1;durP2;ratioP2;P2;SDS_P1;SDS_P2;PMS_P1;PMS_P2;Temp;Humidity;BMP_temperature;BMP_pressure;BME280_temperature;BME280_humidity;BME280_pressure;Samples;Min_cycle;Max_cycle;Signal;HPM_P1;HPM_P2
2022/01/08 00:00:36;;;;;;;242.90;85.13;;;-8.90;99.90;;;-9.50;64.53;98764.31;4987869;28;20129;-80
2022/01/08 00:03:07;;;;;;;230.57;86.57;;;-8.90;99.90;;;-9.48;64.39;98757.94;4974369;28;20042;-80
2022/01/08 00:05:33;;;;;;;237.95;85.15;;;-8.90;99.90;;;-9.51;64.34;98754.78;4972028;28;20559;-80
2022/01/08 00:07:59;;;;;;;236.27;84.07;;;-8.90;99.90;;;-9.52;64.49;98753.94;4960829;28;20161;-80
2022/01/08 00:10:25;;;;;;;209.07;79.10;;;-8.90;99.90;;;-9.54;64.08;98758.53;4976263;28;20125;-80
2022/01/08 00:12:51;;;;;;;231.93;81.45;;;-9.00;99.90;;;-9.53;64.48;98756.72;4974345;28;20124;-80
2022/01/08 00:15:18;;;;;;;242.85;82.75;;;-8.90;99.90;;;-9.51;65.26;98750.38;4974122;28;20042;-80
2022/01/08 00:17:44;;;;;;;238.65;89.53;;;-9.00;99.90;;;-9.55;65.99;98754.25;4961745;28;20034;-80
2022/01/08 00:20:10;;;;;;;326.02;116.25;;;-9.00;99.90;;;-9.53;65.90;98752.31;4940267;28;20076;-80
2022/01/08 00:22:36;;;;;;;355.55;126.05;;;-8.90;99.90;;;-9.54;66.06;98750.66;4958550;28;20053;-80
2022/01/08 00:25:03;;;;;;;318.95;119.22;;;-9.00;99.90;;;-9.50;66.03;98756.44;4960063;28;20038;-80
2022/01/08 00:27:29;;;;;;;287.45;104.65;;;-8.90;99.90;;;-9.50;66.08;98753.81;4957770;28;20046;-80
2022/01/08 00:29:55;;;;;;;282.92;96.25;;;-8.90;99.90;;;-9.49;65.34;98758.06;4976503;28;20137;-80
2022/01/08 00:32:21;;;;;;;254.15;94.32;;;-8.90;99.90;;;-9.48;65.35;98749.25;4970578;28;20069;-80
2022/01/08 00:34:47;;;;;;;260.40;96.75;;;-8.90;99.90;;;-9.51;64.56;98750.38;4962279;28;20165;-80
2022/01/08 00:37:13;;;;;;;260.77;100.30;;;-8.90;99.90;;;-9.65;64.96;98740.34;4952272;28;20557;-80
2022/01/08 00:39:40;;;;;;;275.40;95.78;;;-8.90;99.90;;;-9.64;64.77;98731.47;4987637;28;20488;-80
2022/01/08 00:42:06;;;;;;;282.77;103.32;;;-9.00;99.90;;;-9.65;64.78;98722.78;4974281;28;20047;-80
2022/01/08 00:44:32;;;;;;;314.23;115.78;;;-9.00;99.90;;;-9.66;64.88;98723.78;4974822;28;20039;-80
2022/01/08 00:46:58;;;;;;;310.80;114.28;;;-9.00;99.90;;;-9.65;64.93;98716.72;4990941;28;20225;-80
2022/01/08 00:49:25;;;;;;;302.52;111.20;;;-9.00;99.90;;;-9.63;65.04;98712.97;4959212;28;20437;-80
2022/01/08 00:51:51;;;;;;;364.65;130.07;;;-9.10;99.90;;;-9.59;64.66;98716.16;4942534;28;20046;-80
2022/01/08 00:54:17;;;;;;;397.77;150.70;;;-9.10;99.90;;;-9.57;64.41;98714.16;4961377;28;20406;-80
2022/01/08 00:56:43;;;;;;;371.65;146.07;;;-9.00;99.90;;;-9.57;64.75;98711.53;4974630;28;20034;-80
2022/01/08 00:59:09;;;;;;;290.00;107.32;;;-9.00;99.90;;;-9.60;64.84;98709.22;4957902;28;20556;-80
2022/01/08 01:01:35;;;;;;;296.77;104.43;;;-9.00;99.90;;;-9.60;64.56;98696.09;4975879;28;20082;-80
2022/01/08 01:04:01;;;;;;;278.20;102.60;;;-9.00;99.90;;;-9.63;64.64;98697.22;4980649;28;20100;-80
2022/01/08 01:06:27;;;;;;;284.30;108.45;;;-9.00;99.90;;;-9.65;64.09;98699.16;4957506;28;20046;-80
2022/01/08 01:08:53;;;;;;;324.55;114.93;;;-9.10;99.90;;;-9.68;64.71;98698.63;4971987;28;20049;-80
2022/01/08 01:11:19;;;;;;;368.38;131.80;;;-9.10;99.90;;;-9.68;65.11;98696.81;4941567;28;20070;-80
2022/01/08 01:13:45;;;;;;;383.00;127.15;;;-9.10;99.90;;;-9.69;65.07;98699.59;4975457;28;20050;-80
2022/01/08 01:16:11;;;;;;;301.13;107.05;;;-9.10;99.90;;;-9.74;65.27;98693.94;4957777;28;20045;-80
2022/01/08 01:18:37;;;;;;;327.50;115.60;;;-9.10;99.90;;;-9.72;65.55;98690.22;4970580;28;20042;-80
2022/01/08 01:21:03;;;;;;;377.00;128.82;;;-9.10;99.90;;;-9.68;65.36;98688.97;4970140;28;20138;-80
2022/01/08 01:23:35;;;;;;;409.23;139.43;;;-9.00;99.90;;;-9.67;64.79;98690.59;4975492;28;20128;-80
2022/01/08 01:26:02;;;;;;;399.02;134.40;;;-9.10;99.90;;;-9.68;64.26;98691.59;4973736;28;20453;-80
2022/01/08 01:47:13;;;;;;;268.20;97.50;;;-9.10;99.90;;;-9.77;64.00;98676.69;4974993;28;20129;-80
2022/01/08 01:49:42;;;;;;;268.17;99.47;;;-9.20;99.90;;;-9.79;64.29;98688.31;4957943;28;20057;-80
2022/01/08 01:52:15;;;;;;;307.67;111.80;;;-9.20;99.90;;;-9.77;63.79;98675.88;4974556;28;20051;-80
2022/01/08 01:54:43;;;;;;;327.05;113.07;;;-9.20;99.90;;;-9.75;64.53;98679.19;4938937;28;20043;-80
2022/01/08 01:57:10;;;;;;;311.98;113.97;;;-9.20;99.90;;;-9.72;64.04;98678.88;4956656;28;20074;-80
2022/01/08 01:59:36;;;;;;;296.65;112.00;;;-9.20;99.90;;;-9.73;63.75;98682.50;4962318;28;20084;-80
2022/01/08 02:02:03;;;;;;;266.35;101.05;;;-9.20;99.90;;;-9.76;63.71;98680.19;4957858;28;20054;-80
2022/01/08 02:04:29;;;;;;;275.65;102.32;;;-9.20;99.90;;;-9.79;63.46;98678.66;4956399;28;20571;-80
2022/01/08 02:06:54;;;;;;;279.13;106.20;;;-9.20;99.90;;;-9.79;63.53;98669.94;4971563;28;20039;-80
2022/01/08 02:09:21;;;;;;;276.00;103.75;;;-9.30;99.90;;;-9.86;63.30;98667.91;4954072;28;20065;-79
2022/01/08 02:12:04;;;;;;;268.98;100.35;;;-9.20;99.90;;;-9.83;63.14;98662.38;4971793;28;20476;-80
2022/01/08 02:14:36;;;;;;;301.70;107.60;;;-9.30;99.90;;;-9.82;63.32;98657.94;4988348;28;20130;-80
2022/01/08 02:17:08;;;;;;;297.33;109.97;;;-9.30;99.90;;;-9.81;62.75;98650.91;4953972;28;20046;-80
2022/01/08 02:19:34;;;;;;;303.58;109.20;;;-9.30;99.90;;;-9.81;63.46;98653.53;4972132;28;20126;-79
2022/01/08 02:22:02;;;;;;;333.55;118.22;;;-9.30;99.90;;;-9.86;63.36;98649.56;4973397;28;20279;-80
2022/01/08 02:24:28;;;;;;;323.23;121.22;;;-9.30;99.90;;;-9.84;63.72;98644.16;4972256;28;20038;-80
2022/01/08 02:26:54;;;;;;;295.25;112.07;;;-9.30;99.90;;;-9.83;63.91;98645.81;4973594;28;20136;-79
2022/01/08 02:29:21;;;;;;;386.13;138.65;;;-9.30;99.90;;;-9.81;63.24;98637.78;4970144;28;20046;-80
2022/01/08 02:31:59;;;;;;;422.25;146.02;;;-9.30;99.90;;;-9.81;64.65;98645.66;4955758;28;20030;-80
2022/01/08 02:34:26;;;;;;;471.50;143.90;;;-9.20;99.90;;;-9.80;65.87;98642.06;4978683;28;20245;-80
2022/01/08 02:36:55;;;;;;;403.70;144.20;;;-9.30;99.90;;;-9.74;65.58;98639.69;4980110;28;20482;-80
2022/01/08 02:39:21;;;;;;;350.70;122.93;;;-9.20;99.90;;;-9.72;65.14;98637.72;4968358;28;20063;-79
2022/01/08 02:41:47;;;;;;;345.10;118.93;;;-9.20;99.90;;;-9.75;64.80;98645.88;4983845;28;20038;-79
2022/01/08 02:44:14;;;;;;;328.00;113.65;;;-9.10;99.90;;;-9.78;64.94;98637.50;4953139;28;20085;-79
2022/01/08 02:46:41;;;;;;;285.95;105.40;;;-9.10;99.90;;;-9.77;64.71;98626.81;4938036;28;20077;-80
2022/01/08 02:49:07;;;;;;;305.05;112.15;;;-9.20;99.90;;;-9.74;64.17;98631.81;4954796;28;20820;-80
2022/01/08 02:51:36;;;;;;;282.05;106.07;;;-9.20;99.90;;;-9.75;64.25;98627.50;4956511;28;20050;-80
2022/01/08 02:54:05;;;;;;;304.20;113.03;;;-9.20;99.90;;;-9.81;63.84;98619.41;4972153;28;20104;-80
2022/01/08 02:56:31;;;;;;;334.63;122.60;;;-9.20;99.90;;;-9.87;64.53;98626.06;4969991;28;20599;-79
2022/01/08 02:58:57;;;;;;;378.02;136.57;;;-9.20;99.90;;;-9.92;64.95;98623.06;4957651;28;20135;-80
2022/01/08 03:01:22;;;;;;;378.88;142.02;;;-9.30;99.90;;;-9.94;65.76;98623.22;4972031;28;20100;-79
2022/01/08 03:03:49;;;;;;;411.50;152.05;;;-9.30;99.90;;;-9.89;66.54;98618.34;4957396;28;20050;-79
2022/01/08 03:06:15;;;;;;;403.40;146.55;;;-9.20;99.90;;;-9.83;66.56;98619.56;4967837;28;20046;-80
2022/01/08 03:08:41;;;;;;;387.80;140.15;;;-9.20;99.90;;;-9.71;66.34;98614.94;4955114;28;20046;-80
2022/01/08 03:11:08;;;;;;;393.67;143.00;;;-9.20;99.90;;;-9.70;65.89;98603.44;4954567;28;20218;-80
2022/01/08 03:13:33;;;;;;;392.00;137.10;;;-9.10;99.90;;;-9.70;65.45;98608.69;4970939;28;20066;-80
2022/01/08 03:15:59;;;;;;;338.40;125.15;;;-9.10;99.90;;;-9.73;65.40;98607.19;4970583;28;20124;-80
2022/01/08 03:18:25;;;;;;;351.70;122.38;;;-9.10;99.90;;;-9.73;64.25;98603.75;4954085;28;20061;-80
2022/01/08 03:21:01;;;;;;;312.08;113.00;;;-9.10;99.90;;;-9.76;63.87;98594.38;4975638;28;20065;-80
2022/01/08 03:23:39;;;;;;;313.15;110.88;;;-9.20;99.90;;;-9.78;63.35;98588.44;4978404;28;20046;-80
2022/01/08 03:26:05;;;;;;;296.90;107.80;;;-9.20;99.90;;;-9.80;63.81;98593.00;4960281;28;20069;-79
2022/01/08 03:28:31;;;;;;;299.77;113.80;;;-9.20;99.90;;;-9.84;63.52;98587.25;4957375;28;20137;-79
2022/01/08 03:30:57;;;;;;;306.95;113.72;;;-9.20;99.90;;;-9.85;63.85;98574.25;4973580;28;20074;-80
2022/01/08 03:33:23;;;;;;;281.23;107.30;;;-9.30;99.90;;;-9.90;64.12;98571.25;4973782;28;20136;-80
2022/01/08 03:35:49;;;;;;;344.55;125.38;;;-9.20;99.90;;;-9.91;64.11;98567.00;4974245;28;20129;-79
2022/01/08 03:38:15;;;;;;;356.90;130.32;;;-9.30;99.90;;;-9.93;64.92;98577.63;4974446;28;20070;-80
2022/01/08 03:40:41;;;;;;;342.73;133.65;;;-9.30;99.90;;;-9.91;66.08;98575.69;4974892;28;20861;-80
2022/01/08 03:43:07;;;;;;;348.73;132.80;;;-9.30;99.90;;;-9.89;67.31;98576.38;4976846;28;20117;-80
2022/01/08 03:45:33;;;;;;;327.42;126.70;;;-9.20;99.90;;;-9.79;67.12;98575.44;4974017;28;20089;-80
2022/01/08 03:48:17;;;;;;;344.85;123.25;;;-9.20;99.90;;;-9.73;67.28;98574.88;4973437;28;20046;-80
2022/01/08 03:50:44;;;;;;;308.95;118.32;;;-9.10;99.90;;;-9.71;66.21;98570.31;4980151;28;20172;-80
2022/01/08 03:53:10;;;;;;;315.08;117.25;;;-9.10;99.90;;;-9.67;65.80;98579.50;4962226;28;20501;-80
2022/01/08 03:55:36;;;;;;;304.17;117.20;;;-9.10;99.90;;;-9.66;65.19;98573.31;4957537;28;20491;-80
2022/01/08 03:58:02;;;;;;;302.02;111.63;;;-9.10;99.90;;;-9.67;65.55;98576.88;4970669;28;20046;-80
2022/01/08 04:00:28;;;;;;;292.15;109.07;;;-9.10;99.90;;;-9.71;64.74;98572.94;4988056;28;20344;-80
2022/01/08 04:02:54;;;;;;;285.38;108.05;;;-9.10;99.90;;;-9.75;64.57;98577.63;4980905;28;20042;-80
2022/01/08 04:05:21;;;;;;;307.52;114.90;;;-9.10;99.90;;;-9.83;65.09;98565.25;4971899;28;20066;-80
2022/01/08 04:07:46;;;;;;;305.33;105.65;;;-9.10;99.90;;;-9.89;64.98;98571.13;4943748;28;20050;-80
2022/01/08 04:10:12;;;;;;;281.77;102.35;;;-9.20;99.90;;;-9.91;64.99;98569.63;4972167;28;20062;-80
2022/01/08 04:12:43;;;;;;;272.75;103.70;;;-9.20;99.90;;;-9.87;64.10;98561.31;4972186;28;20485;-80
2022/01/08 04:17:48;;;;;;;277.25;102.20;;;-9.20;99.90;;;-9.86;63.80;98562.94;4958676;28;20042;-80
2022/01/08 04:20:14;;;;;;;268.95;96.60;;;-9.30;99.90;;;-9.84;64.33;98571.50;4957712;28;20050;-80
2022/01/08 04:22:40;;;;;;;280.20;99.38;;;-9.20;99.90;;;-9.91;63.74;98565.19;4973305;28;20050;-80
2022/01/08 04:25:07;;;;;;;280.98;104.53;;;-9.30;99.90;;;-9.94;63.59;98570.75;4954994;28;20072;-80
2022/01/08 04:27:33;;;;;;;278.13;105.45;;;-9.30;99.90;;;-9.99;65.06;98575.63;4974113;28;20121;-80
2022/01/08 04:29:59;;;;;;;273.90;98.93;;;-9.30;99.90;;;-9.93;65.02;98564.50;4956133;28;20034;-80
2022/01/08 04:32:25;;;;;;;288.55;108.28;;;-9.30;99.90;;;-9.88;64.80;98569.31;4955784;28;20034;-80
2022/01/08 04:34:51;;;;;;;279.80;102.63;;;-9.30;99.90;;;-9.83;64.35;98572.31;4974180;28;20173;-80
2022/01/08 04:37:17;;;;;;;286.90;104.97;;;-9.30;99.90;;;-9.85;64.25;98569.84;4957276;28;20041;-80
2022/01/08 04:39:43;;;;;;;246.90;96.47;;;-9.30;99.90;;;-9.88;63.77;98569.31;4922992;28;20496;-80
2022/01/08 04:42:09;;;;;;;252.15;94.97;;;-9.30;99.90;;;-9.90;63.40;98563.38;4951597;28;20066;-80
2022/01/08 04:44:35;;;;;;;238.82;91.20;;;-9.30;99.90;;;-9.96;63.05;98561.38;4970426;28;20085;-80
2022/01/08 04:47:01;;;;;;;260.60;95.22;;;-9.30;99.90;;;-9.99;62.95;98556.44;4937696;28;20069;-80
2022/01/08 04:49:27;;;;;;;270.80;94.07;;;-9.40;99.90;;;-10.01;62.77;98556.56;4958017;28;20051;-80
2022/01/08 04:51:54;;;;;;;234.35;87.70;;;-9.40;99.90;;;-10.00;62.52;98554.75;4953712;28;20042;-80
2022/01/08 04:54:21;;;;;;;238.57;87.28;;;-9.40;99.90;;;-10.05;62.39;98555.19;4937845;28;20517;-80
2022/01/08 04:56:47;;;;;;;227.60;83.22;;;-9.40;99.90;;;-10.06;62.37;98550.94;4966456;28;20042;-80
2022/01/08 04:59:12;;;;;;;232.38;86.05;;;-9.50;99.90;;;-10.09;63.12;98546.00;4938797;28;20070;-80
2022/01/08 05:01:38;;;;;;;229.27;84.97;;;-9.50;99.90;;;-10.13;62.68;98545.44;4969075;28;20051;-80
2022/01/08 05:04:05;;;;;;;240.40;87.40;;;-9.50;99.90;;;-10.17;62.90;98549.34;4937021;28;20487;-80
2022/01/08 05:06:31;;;;;;;264.48;94.00;;;-9.50;99.90;;;-10.16;63.03;98552.81;4970892;28;20670;-80
2022/01/08 05:08:57;;;;;;;286.65;107.03;;;-9.50;99.90;;;-10.15;63.42;98546.56;4971109;28;20208;-80
2022/01/08 05:11:23;;;;;;;260.48;99.07;;;-9.60;99.90;;;-10.11;63.19;98555.81;4951587;28;20146;-80
2022/01/08 05:13:50;;;;;;;246.60;94.05;;;-9.50;99.90;;;-10.11;63.23;98548.75;4956323;28;20117;-80
2022/01/08 05:16:16;;;;;;;231.32;90.50;;;-9.50;99.90;;;-10.13;63.12;98558.56;4935819;28;20606;-80
2022/01/08 05:18:43;;;;;;;255.48;97.32;;;-9.50;99.90;;;-10.16;62.90;98555.41;4971755;28;20046;-80
2022/01/08 05:21:24;;;;;;;256.70;93.72;;;-9.50;99.90;;;-10.16;62.63;98556.25;4937260;28;20030;-80
2022/01/08 05:23:50;;;;;;;;;;;-9.50;99.90;;;-10.17;62.96;98557.22;4943504;28;20574;-80
2022/01/08 05:26:17;;;;;;;207.35;79.20;;;-9.50;99.90;;;-10.16;62.97;98558.88;4968271;28;19930;-80
2022/01/08 05:28:44;;;;;;;225.65;84.07;;;-9.60;99.90;;;-10.19;62.86;98547.84;4936111;28;20045;-80
2022/01/08 05:31:11;;;;;;;248.63;91.18;;;-9.60;99.90;;;-10.24;63.54;98552.72;4953040;28;20410;-80
2022/01/08 05:33:37;;;;;;;213.68;82.63;;;-9.60;99.90;;;-10.21;63.32;98545.38;4965138;28;20129;-80
2022/01/08 05:36:03;;;;;;;212.60;80.93;;;-9.60;99.90;;;-10.20;63.69;98552.28;4950569;28;20177;-80
2022/01/08 05:38:29;;;;;;;183.80;73.97;;;-9.60;99.90;;;-10.21;63.43;98561.09;4969182;28;20053;-80
2022/01/08 05:40:55;;;;;;;193.07;70.70;;;-9.60;99.90;;;-10.15;63.82;98559.69;4942064;28;20042;-80
2022/01/08 05:43:21;;;;;;;230.90;89.25;;;-9.60;99.90;;;-10.09;63.95;98546.00;4977769;28;20062;-81
2022/01/08 05:45:47;;;;;;;225.13;90.85;;;-9.60;99.90;;;-9.99;63.59;98551.19;4960159;28;20085;-81
2022/01/08 05:48:13;;;;;;;231.23;82.55;;;-9.50;99.90;;;-9.89;63.51;98551.94;4976798;28;20541;-81
2022/01/08 05:50:40;;;;;;;202.40;80.38;;;-9.40;99.90;;;-9.87;63.21;98545.56;4977914;28;20046;-81
2022/01/08 05:53:06;;;;;;;223.15;83.30;;;-9.30;99.90;;;-9.84;62.96;98553.13;4957637;28;20053;-81
2022/01/08 05:55:32;;;;;;;226.85;81.32;;;-9.30;99.90;;;-9.83;62.79;98549.50;4957634;28;20046;-81
2022/01/08 05:57:58;;;;;;;212.35;75.45;;;-9.20;99.90;;;-9.85;62.51;98554.09;4957625;28;20072;-81
2022/01/08 06:00:24;;;;;;;218.07;84.75;;;-9.20;99.90;;;-9.91;63.41;98554.69;4960008;28;20130;-81
2022/01/08 06:02:50;;;;;;;232.38;85.88;;;-9.20;99.90;;;-9.90;64.13;98545.00;4958029;28;20058;-81
2022/01/08 06:05:16;;;;;;;204.10;78.88;;;-9.20;99.90;;;-9.81;63.62;98557.25;4976024;28;20049;-81
2022/01/08 06:07:42;;;;;;;204.10;77.10;;;-9.20;99.90;;;-9.79;63.45;98560.56;4965284;28;20125;-81
2022/01/08 06:10:08;;;;;;;197.63;74.70;;;-9.10;99.90;;;-9.78;63.00;98559.56;4977344;28;20117;-81
2022/01/08 06:12:34;;;;;;;183.25;69.88;;;-9.10;99.90;;;-9.78;63.25;98556.94;4975115;28;20053;-81
2022/01/08 06:15:00;;;;;;;188.90;71.10;;;-9.10;99.90;;;-9.84;63.12;98547.88;4960088;28;20193;-81
2022/01/08 06:17:26;;;;;;;182.13;66.93;;;-9.10;99.90;;;-9.84;63.43;98552.31;4981098;28;20070;-81
2022/01/08 06:19:52;;;;;;;173.10;64.35;;;-9.10;99.90;;;-9.85;63.32;98548.84;4962369;28;20046;-81
2022/01/08 06:22:18;;;;;;;180.65;65.55;;;-9.10;99.90;;;-9.81;63.21;98545.94;4942526;28;20172;-81
2022/01/08 06:24:44;;;;;;;192.75;73.10;;;-9.10;99.90;;;-9.83;62.95;98551.31;4977232;28;20042;-81
2022/01/08 06:27:10;;;;;;;187.48;76.05;;;-9.10;99.90;;;-9.76;63.85;98551.56;4957885;28;20031;-81
2022/01/08 06:29:36;;;;;;;221.20;87.65;;;-9.10;99.90;;;-9.71;63.67;98551.94;4977929;28;20043;-81
2022/01/08 06:32:02;;;;;;;264.95;98.13;;;-9.00;99.90;;;-9.68;63.82;98546.38;4958734;28;20122;-81
2022/01/08 06:34:28;;;;;;;239.38;92.47;;;-9.00;99.90;;;-9.65;62.89;98548.69;4979234;28;20034;-81
2022/01/08 06:36:54;;;;;;;225.07;84.05;;;-9.00;99.90;;;-9.65;62.97;98546.06;4958327;28;20046;-81
2022/01/08 06:39:20;;;;;;;211.45;79.32;;;-8.90;99.90;;;-9.63;63.17;98552.81;4960661;28;20355;-81
2022/01/08 06:41:46;;;;;;;221.70;81.55;;;-8.90;99.90;;;-9.58;62.98;98556.78;4961043;28;20101;-82
2022/01/08 06:44:12;;;;;;;168.95;66.88;;;-8.90;99.90;;;-9.57;62.86;98559.25;4961476;28;20077;-81
2022/01/08 06:46:38;;;;;;;175.05;66.82;;;-8.90;99.90;;;-9.63;62.81;98547.56;4977312;28;20046;-81
2022/01/08 06:49:04;;;;;;;167.13;65.05;;;-8.80;99.90;;;-9.54;63.33;98552.88;4960813;28;20042;-81
2022/01/08 06:51:30;;;;;;;153.38;59.55;;;-8.80;99.90;;;-9.52;62.95;98543.88;4962065;28;20129;-81
2022/01/08 06:53:56;;;;;;;192.88;71.78;;;-8.80;99.90;;;-9.45;63.23;98550.16;4945599;28;20394;-81
2022/01/08 06:56:22;;;;;;;252.27;92.80;;;-8.70;99.90;;;-9.39;63.44;98548.72;4976811;28;20074;-81
2022/01/08 06:58:48;;;;;;;229.90;88.38;;;-8.70;99.90;;;-9.26;63.63;98548.31;4960291;28;20073;-81
2022/01/08 07:01:14;;;;;;;214.77;83.28;;;-8.60;99.90;;;-9.12;63.28;98549.59;4954113;28;20038;-81
2022/01/08 07:03:40;;;;;;;210.43;78.10;;;-8.50;99.90;;;-9.03;62.85;98546.84;4978034;28;20042;-81
2022/01/08 07:06:06;;;;;;;187.25;74.85;;;-8.40;99.90;;;-8.93;62.92;98544.09;4974945;28;20038;-81
2022/01/08 07:08:32;;;;;;;156.20;64.10;;;-8.30;99.90;;;-8.85;62.20;98551.19;4941249;28;20097;-81
2022/01/08 07:10:58;;;;;;;147.80;54.88;;;-8.20;99.90;;;-8.77;62.97;98546.81;4938700;28;20098;-81
2022/01/08 07:13:24;;;;;;;160.35;63.53;;;-8.10;99.90;;;-8.63;62.71;98553.28;4973645;28;20049;-81
2022/01/08 07:15:50;;;;;;;151.18;61.13;;;-8.00;99.90;;;-8.47;63.08;98546.44;4961287;28;20038;-81
2022/01/08 07:18:16;;;;;;;182.85;71.63;;;-7.90;99.90;;;-8.36;62.77;98546.97;4960697;28;20066;-81
2022/01/08 07:20:42;;;;;;;153.00;65.82;;;-7.70;99.90;;;-8.22;62.83;98535.00;4961918;28;20065;-81
2022/01/08 07:23:08;;;;;;;143.75;60.03;;;-7.60;99.90;;;-8.10;63.08;98549.50;4956067;28;20035;-81
2022/01/08 07:25:34;;;;;;;154.43;63.53;;;-7.40;99.90;;;-7.94;63.03;98540.00;4957846;28;20066;-81
2022/01/08 07:28:00;;;;;;;162.13;70.00;;;-7.30;99.90;;;-7.78;63.26;98537.41;4960054;28;20105;-81
2022/01/08 07:30:26;;;;;;;183.45;74.25;;;-7.10;99.90;;;-7.65;63.21;98544.81;4977845;28;20101;-81
2022/01/08 07:32:52;;;;;;;198.65;81.25;;;-7.00;99.90;;;-7.46;63.76;98543.66;4959814;28;20136;-81
2022/01/08 07:35:21;;;;;;;200.05;80.43;;;-6.80;99.90;;;-7.14;63.94;98539.38;4974839;28;20077;-81
2022/01/08 07:37:48;;;;;;;199.38;79.38;;;-6.50;99.90;;;-6.88;63.71;98537.34;4975383;28;20054;-81
2022/01/08 07:40:14;;;;;;;213.52;81.95;;;-6.30;99.90;;;-6.65;63.85;98526.06;4977012;28;20050;-81
2022/01/08 07:42:40;;;;;;;171.85;74.32;;;-6.10;99.90;;;-6.40;63.91;98521.50;4973622;28;20462;-81
2022/01/08 07:45:08;;;;;;;163.02;65.63;;;-5.80;99.90;;;-6.20;63.60;98520.09;4975267;28;20039;-81
2022/01/08 07:47:34;;;;;;;155.82;61.75;;;-5.60;99.90;;;-5.98;63.46;98512.34;4959427;28;20443;-81
2022/01/08 07:50:00;;;;;;;133.35;57.17;;;-5.40;99.90;;;-5.77;63.64;98517.00;4943926;28;20042;-81
2022/01/08 07:52:26;;;;;;;135.95;57.95;;;-5.20;99.90;;;-5.64;63.51;98524.34;4958173;28;20558;-81
2022/01/08 07:54:52;;;;;;;145.05;58.28;;;-5.10;99.90;;;-5.56;63.43;98517.16;4972693;28;20045;-81
2022/01/08 07:57:18;;;;;;;142.52;56.72;;;-4.90;99.90;;;-5.40;63.41;98515.38;4942930;28;20065;-81
2022/01/08 07:59:44;;;;;;;145.52;55.30;;;-4.70;99.90;;;-5.34;63.28;98514.66;4991135;28;20030;-81
2022/01/08 08:02:10;;;;;;;137.65;52.97;;;-4.60;99.90;;;-5.19;63.37;98507.59;4958532;28;20046;-82
2022/01/08 08:04:37;;;;;;;139.30;56.67;;;-4.50;99.90;;;-5.03;63.19;98515.38;4974026;28;20612;-82
2022/01/08 08:07:03;;;;;;;155.55;64.35;;;-4.40;99.90;;;-4.84;63.35;98508.69;4974852;28;20038;-82
2022/01/08 08:09:29;;;;;;;137.25;55.97;;;-4.20;99.90;;;-4.61;63.16;98511.25;4961736;28;20034;-82
2022/01/08 08:11:55;;;;;;;145.35;59.15;;;-4.10;99.90;;;-4.44;63.35;98513.72;4979286;28;20065;-81
2022/01/08 08:14:22;;;;;;;151.43;62.22;;;-3.90;99.90;;;-4.19;63.98;98509.75;4979690;28;20117;-81
2022/01/08 08:16:48;;;;;;;152.70;61.90;;;-3.60;99.90;;;-3.94;64.60;98514.72;4979262;28;20046;-82
2022/01/08 08:19:14;;;;;;;129.65;54.92;;;-3.40;99.90;;;-3.66;64.79;98509.50;4983047;28;20379;-80
2022/01/08 08:21:40;;;;;;;126.53;51.25;;;-3.00;99.90;;;-3.41;65.01;98509.94;4963739;28;20122;-81
2022/01/08 08:24:06;;;;;;;118.68;47.70;;;-2.70;99.90;;;-3.16;64.88;98506.84;4975672;28;20065;-81
2022/01/08 08:26:33;;;;;;;126.13;53.92;;;-2.50;99.90;;;-2.86;65.15;98504.81;4964545;28;20038;-81
2022/01/08 08:28:59;;;;;;;122.60;51.63;;;-2.20;99.90;;;-2.69;64.55;98494.72;4962575;28;20433;-81
2022/01/08 08:31:25;;;;;;;125.57;49.72;;;-2.00;99.90;;;-2.52;64.80;98496.03;4953588;28;20479;-81
2022/01/08 08:33:51;;;;;;;123.88;47.05;;;-1.80;99.90;;;-2.34;64.62;98508.78;4958574;28;20690;-80
2022/01/08 08:36:17;;;;;;;119.60;48.65;;;-1.70;99.90;;;-2.17;64.46;98495.97;4954106;28;20042;-81
2022/01/08 08:38:43;;;;;;;109.32;45.47;;;-1.50;99.90;;;-1.93;64.36;98496.44;4979585;28;20062;-81
2022/01/08 08:41:10;;;;;;;99.85;44.42;;;-1.30;99.90;;;-1.76;63.49;98495.06;4955750;28;20070;-81
2022/01/08 08:43:36;;;;;;;122.95;52.38;;;-1.20;99.90;;;-1.70;62.57;98496.91;4965744;28;20045;-81
2022/01/08 08:46:02;;;;;;;129.23;49.22;;;-1.10;99.90;;;-1.54;62.34;98495.72;4972428;28;20046;-81
2022/01/08 08:48:28;;;;;;;116.28;47.28;;;-0.90;99.90;;;-1.32;63.06;98491.03;4958571;28;20058;-81
2022/01/08 08:50:54;;;;;;;130.73;52.85;;;-0.70;99.90;;;-1.07;62.52;98498.38;4961580;28;20122;-81
2022/01/08 08:53:20;;;;;;;132.45;51.35;;;-0.50;99.90;;;-0.86;62.84;98498.16;4952532;28;20163;-81
2022/01/08 08:55:48;;;;;;;123.32;52.70;;;-0.30;99.90;;;-0.66;62.07;98495.47;4955892;28;20775;-80
2022/01/08 08:58:15;;;;;;;115.68;51.08;;;-0.10;99.90;;;-0.58;62.59;98497.91;4957561;28;20088;-80
2022/01/08 09:00:41;;;;;;;112.35;49.00;;;0.00;99.90;;;-0.43;61.50;98489.66;4961212;28;20497;-80
2022/01/08 09:03:09;;;;;;;121.90;53.05;;;0.10;99.90;;;-0.25;60.78;98496.97;4961487;28;20528;-80
2022/01/08 09:05:36;;;;;;;137.43;59.60;;;0.30;99.90;;;-0.03;61.43;98495.63;4971350;28;20047;-80
2022/01/08 09:08:04;;;;;;;146.02;70.88;;;0.40;99.90;;;0.21;61.02;98485.25;4953253;28;20046;-81
2022/01/08 09:10:32;;;;;;;156.32;68.55;;;0.70;99.90;;;0.47;61.57;98491.44;4955149;28;20124;-81
2022/01/08 09:12:58;;;;;;;149.32;68.13;;;0.90;99.90;;;0.57;61.09;98487.25;4972208;28;20043;-81
2022/01/08 09:15:26;;;;;;;154.30;68.30;;;1.10;99.90;;;0.62;60.99;98489.28;4947942;28;20049;-81
2022/01/08 09:17:57;;;;;;;138.75;62.45;;;1.30;99.90;;;0.83;60.55;98488.91;4964551;28;20160;-81
2022/01/08 09:20:25;;;;;;;136.25;64.28;;;1.50;99.90;;;0.94;59.96;98483.88;4959679;28;20039;-81
2022/01/08 09:22:51;;;;;;;137.13;59.35;;;1.60;99.90;;;1.05;60.66;98485.84;4974146;28;20042;-81
2022/01/08 09:25:17;;;;;;;156.05;65.68;;;1.70;99.90;;;1.09;59.55;98481.69;4956358;28;20076;-81
2022/01/08 09:27:44;;;;;;;138.68;62.53;;;1.80;99.90;;;1.27;59.72;98473.72;4957193;28;20611;-81
2022/01/08 09:30:10;;;;;;;121.97;61.53;;;2.00;99.90;;;1.58;60.36;98471.09;4971793;28;20038;-81
2022/01/08 09:32:40;;;;;;;130.52;58.20;;;2.20;99.90;;;1.75;59.52;98472.13;4955045;28;20429;-81
2022/01/08 09:35:07;;;;;;;138.23;65.35;;;2.30;99.90;;;1.65;58.11;98471.84;4965951;28;20041;-82
2022/01/08 09:37:33;;;;;;;135.35;63.35;;;2.40;99.90;;;1.57;57.25;98474.81;4965599;28;20125;-81
2022/01/08 09:39:59;;;;;;;89.75;38.55;;;2.40;99.90;;;1.57;55.27;98472.97;4968470;28;20043;-81
2022/01/08 09:42:25;;;;;;;107.60;48.72;;;2.40;99.90;;;1.54;53.64;98472.59;4926799;28;20314;-81
2022/01/08 09:44:51;;;;;;;109.25;50.65;;;2.40;99.90;;;1.70;55.65;98472.00;4953625;28;20050;-82
2022/01/08 09:47:17;;;;;;;111.72;48.83;;;2.40;99.90;;;1.73;56.29;98476.88;4957852;28;20135;-81
2022/01/08 09:49:43;;;;;;;103.38;48.72;;;2.50;99.90;;;2.07;57.22;98477.31;4946612;28;20070;-81
2022/01/08 09:52:10;;;;;;;90.90;41.75;;;2.60;99.90;;;2.35;57.59;98474.84;4972372;28;20085;-81
2022/01/08 09:54:36;;;;;;;91.63;41.88;;;2.90;99.90;;;2.44;57.11;98471.81;4991930;28;20050;-80
2022/01/08 09:57:03;;;;;;;87.90;42.30;;;3.10;99.90;;;2.54;56.42;98469.41;4986306;28;20048;-81
2022/01/08 09:59:29;;;;;;;75.38;35.08;;;3.30;99.90;;;2.68;57.47;98464.69;4979504;28;20542;-81
2022/01/08 10:01:59;;;;;;;76.68;37.67;;;3.40;99.90;;;2.89;56.90;98461.44;4972766;28;20100;-81
2022/01/08 10:04:27;;;;;;;88.68;37.78;;;3.50;99.90;;;3.00;56.81;98460.63;4954051;28;20042;-81
2022/01/08 10:07:23;;;;;;;73.68;35.55;;;3.60;99.90;;;3.00;56.35;98460.63;4976212;28;20156;-81
2022/01/08 10:10:15;;;;;;;83.50;35.72;;;3.70;99.90;;;3.08;55.68;98455.94;4950438;28;20042;-81
2022/01/08 10:12:55;;;;;;;81.47;39.10;;;3.80;99.90;;;3.08;54.44;98447.91;4952716;28;20053;-81
2022/01/08 10:18:26;;;;;;;82.75;36.95;;;3.90;99.90;;;3.43;55.45;98453.25;4971467;28;20417;-81
2022/01/08 10:20:53;;;;;;;80.50;40.53;;;4.10;99.90;;;3.46;54.58;98455.44;4985074;28;20061;-81
2022/01/08 10:23:31;;;;;;;87.05;40.85;;;4.10;99.90;;;3.69;54.44;98452.72;4953959;28;20054;-81